sensor_id;sensor_type;location;lat;lon;timestamp;P1;durP1;ratioP1;P2;durP2;ratioP2
25111;SDS011;13092;51.996;4.458;2022-10-29T00:00:55;39.08;;;35.25;;
25111;SDS011;13092;51.996;4.458;2022-10-29T00:03:24;39.30;;;35.20;;
25111;SDS011;13092;51.996;4.458;2022-10-29T00:05:56;42.55;;;35.75;;
25111;SDS011;13092;51.996;4.458;2022-10-29T00:08:27;38.63;;;35.08;;
25111;SDS011;13092;51.996;4.458;2022-10-29T00:11:05;39.00;;;34.92;;
25111;SDS011;13092;51.996;4.458;2022-10-29T00:13:34;38.88;;;35.00;;
25111;SDS011;13092;51.996;4.458;2022-10-29T00:16:03;41.75;;;36.03;;
25111;SDS011;13092;51.996;4.458;2022-10-29T00:18:32;39.67;;;35.70;;
25111;SDS011;13092;51.996;4.458;2022-10-29T00:21:03;39.95;;;35.08;;
25111;SDS011;13092;51.996;4.458;2022-10-29T00:23:33;41.28;;;35.95;;
25111;SDS011;13092;51.996;4.458;2022-10-29T00:26:01;38.80;;;34.78;;
25111;SDS011;13092;51.996;4.458;2022-10-29T00:28:34;38.97;;;35.03;;
25111;SDS011;13092;51.996;4.458;2022-10-29T00:31:02;37.13;;;33.65;;
25111;SDS011;13092;51.996;4.458;2022-10-29T00:33:31;39.10;;;35.35;;
25111;SDS011;13092;51.996;4.458;2022-10-29T00:36:02;37.92;;;34.55;;
25111;SDS011;13092;51.996;4.458;2022-10-29T00:38:34;36.95;;;33.78;;
25111;SDS011;13092;51.996;4.458;2022-10-29T00:41:03;38.55;;;34.60;;
25111;SDS011;13092;51.996;4.458;2022-10-29T00:43:35;39.42;;;33.75;;
25111;SDS011;13092;51.996;4.458;2022-10-29T00:46:04;38.92;;;34.80;;
25111;SDS011;13092;51.996;4.458;2022-10-29T00:48:36;37.40;;;34.05;;
25111;SDS011;13092;51.996;4.458;2022-10-29T00:51:09;38.13;;;34.33;;
25111;SDS011;13092;51.996;4.458;2022-10-29T00:53:39;37.88;;;34.13;;
25111;SDS011;13092;51.996;4.458;2022-10-29T00:56:11;41.92;;;36.10;;
25111;SDS011;13092;51.996;4.458;2022-10-29T00:58:43;42.70;;;35.72;;
25111;SDS011;13092;51.996;4.458;2022-10-29T01:01:12;41.83;;;35.47;;
25111;SDS011;13092;51.996;4.458;2022-10-29T01:03:40;43.10;;;34.92;;
25111;SDS011;13092;51.996;4.458;2022-10-29T01:06:08;37.80;;;34.10;;
25111;SDS011;13092;51.996;4.458;2022-10-29T01:08:36;38.03;;;34.05;;
25111;SDS011;13092;51.996;4.458;2022-10-29T01:11:09;37.03;;;33.65;;
25111;SDS011;13092;51.996;4.458;2022-10-29T01:13:58;38.17;;;34.25;;
25111;SDS011;13092;51.996;4.458;2022-10-29T01:16:38;37.75;;;34.15;;
25111;SDS011;13092;51.996;4.458;2022-10-29T01:19:14;38.22;;;34.47;;
25111;SDS011;13092;51.996;4.458;2022-10-29T01:21:54;37.15;;;33.95;;
25111;SDS011;13092;51.996;4.458;2022-10-29T01:27:37;39.17;;;35.20;;
25111;SDS011;13092;51.996;4.458;2022-10-29T01:30:20;39.72;;;35.88;;
25111;SDS011;13092;51.996;4.458;2022-10-29T01:33:05;39.03;;;34.92;;
25111;SDS011;13092;51.996;4.458;2022-10-29T01:35:43;40.00;;;35.63;;
25111;SDS011;13092;51.996;4.458;2022-10-29T01:38:18;40.50;;;36.00;;
25111;SDS011;13092;51.996;4.458;2022-10-29T01:40:54;40.00;;;35.95;;
25111;SDS011;13092;51.996;4.458;2022-10-29T01:43:27;38.63;;;35.08;;
25111;SDS011;13092;51.996;4.458;2022-10-29T01:46:03;38.08;;;34.42;;
25111;SDS011;13092;51.996;4.458;2022-10-29T01:48:38;38.05;;;34.28;;
25111;SDS011;13092;51.996;4.458;2022-10-29T01:51:11;38.28;;;33.92;;
25111;SDS011;13092;51.996;4.458;2022-10-29T01:53:45;38.05;;;34.50;;
25111;SDS011;13092;51.996;4.458;2022-10-29T01:56:16;37.83;;;34.53;;
25111;SDS011;13092;51.996;4.458;2022-10-29T01:58:45;38.58;;;34.67;;
25111;SDS011;13092;51.996;4.458;2022-10-29T02:01:21;37.38;;;34.25;;
25111;SDS011;13092;51.996;4.458;2022-10-29T02:04:03;38.65;;;34.97;;
25111;SDS011;13092;51.996;4.458;2022-10-29T02:06:47;36.45;;;33.17;;
25111;SDS011;13092;51.996;4.458;2022-10-29T02:09:25;36.92;;;33.78;;
25111;SDS011;13092;51.996;4.458;2022-10-29T02:12:00;37.63;;;34.35;;
25111;SDS011;13092;51.996;4.458;2022-10-29T02:14:35;38.42;;;34.72;;
25111;SDS011;13092;51.996;4.458;2022-10-29T02:17:07;38.53;;;34.88;;
25111;SDS011;13092;51.996;4.458;2022-10-29T02:19:37;37.63;;;34.30;;
25111;SDS011;13092;51.996;4.458;2022-10-29T02:22:05;37.63;;;34.42;;
25111;SDS011;13092;51.996;4.458;2022-10-29T02:24:34;38.67;;;35.08;;
25111;SDS011;13092;51.996;4.458;2022-10-29T02:27:02;39.03;;;34.97;;
25111;SDS011;13092;51.996;4.458;2022-10-29T02:29:30;39.33;;;35.38;;
25111;SDS011;13092;51.996;4.458;2022-10-29T02:31:58;38.08;;;34.67;;
25111;SDS011;13092;51.996;4.458;2022-10-29T02:34:27;39.55;;;35.47;;
25111;SDS011;13092;51.996;4.458;2022-10-29T02:36:56;38.03;;;34.75;;
25111;SDS011;13092;51.996;4.458;2022-10-29T02:39:25;39.45;;;35.47;;
25111;SDS011;13092;51.996;4.458;2022-10-29T02:41:53;37.95;;;34.72;;
25111;SDS011;13092;51.996;4.458;2022-10-29T02:44:21;41.47;;;36.08;;
25111;SDS011;13092;51.996;4.458;2022-10-29T02:46:49;37.42;;;34.30;;
25111;SDS011;13092;51.996;4.458;2022-10-29T02:49:17;38.40;;;34.35;;
25111;SDS011;13092;51.996;4.458;2022-10-29T02:51:46;39.75;;;35.97;;
25111;SDS011;13092;51.996;4.458;2022-10-29T02:54:17;39.55;;;35.78;;
25111;SDS011;13092;51.996;4.458;2022-10-29T02:56:45;37.67;;;34.10;;
25111;SDS011;13092;51.996;4.458;2022-10-29T02:59:13;38.50;;;34.83;;
25111;SDS011;13092;51.996;4.458;2022-10-29T03:01:41;37.70;;;34.35;;
25111;SDS011;13092;51.996;4.458;2022-10-29T03:04:10;38.22;;;34.63;;
25111;SDS011;13092;51.996;4.458;2022-10-29T03:06:38;38.03;;;34.70;;
25111;SDS011;13092;51.996;4.458;2022-10-29T03:09:06;37.67;;;34.17;;
25111;SDS011;13092;51.996;4.458;2022-10-29T03:11:36;37.38;;;34.13;;
25111;SDS011;13092;51.996;4.458;2022-10-29T03:14:04;38.65;;;34.90;;
25111;SDS011;13092;51.996;4.458;2022-10-29T03:16:33;38.53;;;35.05;;
25111;SDS011;13092;51.996;4.458;2022-10-29T03:19:02;37.90;;;34.70;;
25111;SDS011;13092;51.996;4.458;2022-10-29T03:21:30;38.10;;;34.70;;
25111;SDS011;13092;51.996;4.458;2022-10-29T03:23:59;38.83;;;34.72;;
25111;SDS011;13092;51.996;4.458;2022-10-29T03:26:27;40.13;;;35.95;;
25111;SDS011;13092;51.996;4.458;2022-10-29T03:28:56;38.33;;;34.72;;
25111;SDS011;13092;51.996;4.458;2022-10-29T03:31:24;38.72;;;35.15;;
25111;SDS011;13092;51.996;4.458;2022-10-29T03:33:53;38.97;;;35.17;;
25111;SDS011;13092;51.996;4.458;2022-10-29T03:36:21;39.72;;;36.17;;
25111;SDS011;13092;51.996;4.458;2022-10-29T03:38:49;38.42;;;35.00;;
25111;SDS011;13092;51.996;4.458;2022-10-29T03:41:18;38.72;;;34.90;;
25111;SDS011;13092;51.996;4.458;2022-10-29T03:43:46;38.05;;;34.75;;
25111;SDS011;13092;51.996;4.458;2022-10-29T03:46:16;38.40;;;35.10;;
25111;SDS011;13092;51.996;4.458;2022-10-29T03:48:44;37.17;;;33.97;;
25111;SDS011;13092;51.996;4.458;2022-10-29T03:51:16;37.75;;;34.60;;
25111;SDS011;13092;51.996;4.458;2022-10-29T03:53:44;37.67;;;34.53;;
25111;SDS011;13092;51.996;4.458;2022-10-29T03:56:12;38.50;;;35.03;;
25111;SDS011;13092;51.996;4.458;2022-10-29T03:58:40;38.65;;;35.30;;
25111;SDS011;13092;51.996;4.458;2022-10-29T04:01:09;37.70;;;34.58;;
25111;SDS011;13092;51.996;4.458;2022-10-29T04:03:39;37.58;;;34.22;;
25111;SDS011;13092;51.996;4.458;2022-10-29T04:06:10;37.08;;;33.75;;
25111;SDS011;13092;51.996;4.458;2022-10-29T04:08:39;37.42;;;33.92;;
25111;SDS011;13092;51.996;4.458;2022-10-29T04:11:08;37.95;;;34.60;;
25111;SDS011;13092;51.996;4.458;2022-10-29T04:13:37;38.28;;;34.50;;
25111;SDS011;13092;51.996;4.458;2022-10-29T04:16:06;38.10;;;34.70;;
25111;SDS011;13092;51.996;4.458;2022-10-29T04:18:35;37.60;;;34.28;;
25111;SDS011;13092;51.996;4.458;2022-10-29T04:21:05;37.90;;;34.63;;
25111;SDS011;13092;51.996;4.458;2022-10-29T04:23:53;37.97;;;34.20;;
25111;SDS011;13092;51.996;4.458;2022-10-29T04:26:42;38.88;;;35.13;;
25111;SDS011;13092;51.996;4.458;2022-10-29T04:29:31;38.03;;;34.35;;
25111;SDS011;13092;51.996;4.458;2022-10-29T04:31:59;38.35;;;34.75;;
25111;SDS011;13092;51.996;4.458;2022-10-29T04:34:27;36.00;;;32.88;;
25111;SDS011;13092;51.996;4.458;2022-10-29T04:36:57;38.67;;;34.78;;
25111;SDS011;13092;51.996;4.458;2022-10-29T04:39:25;36.50;;;33.00;;
25111;SDS011;13092;51.996;4.458;2022-10-29T04:41:53;38.17;;;34.28;;
25111;SDS011;13092;51.996;4.458;2022-10-29T04:44:21;36.85;;;32.83;;
25111;SDS011;13092;51.996;4.458;2022-10-29T04:46:49;37.25;;;33.92;;
25111;SDS011;13092;51.996;4.458;2022-10-29T04:49:17;37.78;;;34.53;;
25111;SDS011;13092;51.996;4.458;2022-10-29T04:51:47;38.65;;;35.20;;
25111;SDS011;13092;51.996;4.458;2022-10-29T04:54:17;37.20;;;34.00;;
25111;SDS011;13092;51.996;4.458;2022-10-29T04:56:45;38.25;;;34.55;;
25111;SDS011;13092;51.996;4.458;2022-10-29T04:59:13;37.88;;;34.25;;
25111;SDS011;13092;51.996;4.458;2022-10-29T05:01:42;38.00;;;34.40;;
25111;SDS011;13092;51.996;4.458;2022-10-29T05:04:10;38.15;;;34.85;;
25111;SDS011;13092;51.996;4.458;2022-10-29T05:06:38;38.22;;;34.83;;
25111;SDS011;13092;51.996;4.458;2022-10-29T05:09:06;39.00;;;35.60;;
25111;SDS011;13092;51.996;4.458;2022-10-29T05:11:36;38.13;;;34.67;;
25111;SDS011;13092;51.996;4.458;2022-10-29T05:14:04;38.58;;;34.97;;
25111;SDS011;13092;51.996;4.458;2022-10-29T05:16:32;37.72;;;34.15;;
25111;SDS011;13092;51.996;4.458;2022-10-29T05:19:00;39.22;;;35.20;;
25111;SDS011;13092;51.996;4.458;2022-10-29T05:21:29;37.90;;;34.35;;
25111;SDS011;13092;51.996;4.458;2022-10-29T05:23:57;36.92;;;33.85;;
25111;SDS011;13092;51.996;4.458;2022-10-29T05:26:25;38.03;;;34.25;;
25111;SDS011;13092;51.996;4.458;2022-10-29T05:28:55;38.15;;;34.75;;
25111;SDS011;13092;51.996;4.458;2022-10-29T05:31:23;39.00;;;35.55;;
25111;SDS011;13092;51.996;4.458;2022-10-29T05:33:51;37.78;;;34.38;;
25111;SDS011;13092;51.996;4.458;2022-10-29T05:36:21;37.78;;;33.95;;
25111;SDS011;13092;51.996;4.458;2022-10-29T05:38:49;37.90;;;34.55;;
25111;SDS011;13092;51.996;4.458;2022-10-29T05:41:17;39.25;;;35.28;;
25111;SDS011;13092;51.996;4.458;2022-10-29T05:43:47;38.45;;;35.15;;
25111;SDS011;13092;51.996;4.458;2022-10-29T05:46:16;40.35;;;36.60;;
25111;SDS011;13092;51.996;4.458;2022-10-29T05:48:45;39.70;;;35.90;;
25111;SDS011;13092;51.996;4.458;2022-10-29T05:51:13;39.63;;;35.80;;
25111;SDS011;13092;51.996;4.458;2022-10-29T05:53:41;39.63;;;35.72;;
25111;SDS011;13092;51.996;4.458;2022-10-29T05:56:09;38.65;;;34.80;;
25111;SDS011;13092;51.996;4.458;2022-10-29T05:58:37;37.70;;;34.63;;
25111;SDS011;13092;51.996;4.458;2022-10-29T06:01:05;38.67;;;35.08;;
25111;SDS011;13092;51.996;4.458;2022-10-29T06:03:36;39.47;;;35.78;;
25111;SDS011;13092;51.996;4.458;2022-10-29T06:06:04;40.13;;;36.42;;
25111;SDS011;13092;51.996;4.458;2022-10-29T06:08:33;39.78;;;35.47;;
25111;SDS011;13092;51.996;4.458;2022-10-29T06:11:01;39.63;;;35.60;;
25111;SDS011;13092;51.996;4.458;2022-10-29T06:13:30;39.60;;;35.33;;
25111;SDS011;13092;51.996;4.458;2022-10-29T06:15:58;37.72;;;33.90;;
25111;SDS011;13092;51.996;4.458;2022-10-29T06:18:27;38.70;;;35.17;;
25111;SDS011;13092;51.996;4.458;2022-10-29T06:20:58;38.67;;;35.20;;
25111;SDS011;13092;51.996;4.458;2022-10-29T06:23:26;39.58;;;35.78;;
25111;SDS011;13092;51.996;4.458;2022-10-29T06:25:58;38.22;;;34.72;;
25111;SDS011;13092;51.996;4.458;2022-10-29T06:28:27;38.17;;;34.75;;
25111;SDS011;13092;51.996;4.458;2022-10-29T06:31:00;39.33;;;35.47;;
25111;SDS011;13092;51.996;4.458;2022-10-29T06:33:28;39.85;;;35.88;;
25111;SDS011;13092;51.996;4.458;2022-10-29T06:35:58;38.83;;;35.17;;
25111;SDS011;13092;51.996;4.458;2022-10-29T06:38:27;40.55;;;35.45;;
25111;SDS011;13092;51.996;4.458;2022-10-29T06:40:55;39.00;;;35.40;;
25111;SDS011;13092;51.996;4.458;2022-10-29T06:43:23;39.47;;;35.70;;
25111;SDS011;13092;51.996;4.458;2022-10-29T06:45:51;39.17;;;35.47;;
25111;SDS011;13092;51.996;4.458;2022-10-29T06:48:19;37.25;;;33.65;;
25111;SDS011;13092;51.996;4.458;2022-10-29T06:50:48;36.08;;;32.78;;
25111;SDS011;13092;51.996;4.458;2022-10-29T06:53:18;37.10;;;33.65;;
25111;SDS011;13092;51.996;4.458;2022-10-29T06:55:46;37.33;;;34.15;;
25111;SDS011;13092;51.996;4.458;2022-10-29T06:58:15;37.22;;;34.03;;
25111;SDS011;13092;51.996;4.458;2022-10-29T07:00:44;36.30;;;33.20;;
25111;SDS011;13092;51.996;4.458;2022-10-29T07:03:13;37.92;;;34.40;;
25111;SDS011;13092;51.996;4.458;2022-10-29T07:05:44;37.40;;;33.92;;
25111;SDS011;13092;51.996;4.458;2022-10-29T07:08:17;36.00;;;33.00;;
25111;SDS011;13092;51.996;4.458;2022-10-29T07:10:48;35.95;;;32.90;;
25111;SDS011;13092;51.996;4.458;2022-10-29T07:13:22;35.92;;;32.85;;
25111;SDS011;13092;51.996;4.458;2022-10-29T07:16:17;37.30;;;33.90;;
25111;SDS011;13092;51.996;4.458;2022-10-29T07:18:48;35.90;;;32.88;;
25111;SDS011;13092;51.996;4.458;2022-10-29T07:21:19;36.17;;;32.85;;
25111;SDS011;13092;51.996;4.458;2022-10-29T07:23:48;38.67;;;34.53;;
25111;SDS011;13092;51.996;4.458;2022-10-29T07:26:17;38.47;;;34.50;;
25111;SDS011;13092;51.996;4.458;2022-10-29T07:28:45;37.95;;;34.28;;
25111;SDS011;13092;51.996;4.458;2022-10-29T07:31:13;37.70;;;33.92;;
25111;SDS011;13092;51.996;4.458;2022-10-29T07:33:41;38.13;;;34.45;;
25111;SDS011;13092;51.996;4.458;2022-10-29T07:36:09;38.00;;;34.22;;
25111;SDS011;13092;51.996;4.458;2022-10-29T07:38:37;38.13;;;34.22;;
25111;SDS011;13092;51.996;4.458;2022-10-29T07:41:06;38.00;;;33.95;;
25111;SDS011;13092;51.996;4.458;2022-10-29T07:43:34;38.60;;;34.65;;
25111;SDS011;13092;51.996;4.458;2022-10-29T07:46:02;37.65;;;34.28;;
25111;SDS011;13092;51.996;4.458;2022-10-29T07:48:30;36.67;;;33.15;;
25111;SDS011;13092;51.996;4.458;2022-10-29T07:50:58;37.53;;;33.95;;
25111;SDS011;13092;51.996;4.458;2022-10-29T07:53:29;37.78;;;33.65;;
25111;SDS011;13092;51.996;4.458;2022-10-29T07:55:58;38.40;;;34.40;;
25111;SDS011;13092;51.996;4.458;2022-10-29T07:58:27;37.30;;;33.88;;
25111;SDS011;13092;51.996;4.458;2022-10-29T08:00:56;38.78;;;34.90;;
25111;SDS011;13092;51.996;4.458;2022-10-29T08:03:26;37.25;;;33.83;;
25111;SDS011;13092;51.996;4.458;2022-10-29T08:05:55;38.22;;;34.55;;
25111;SDS011;13092;51.996;4.458;2022-10-29T08:08:23;42.03;;;35.33;;
25111;SDS011;13092;51.996;4.458;2022-10-29T08:10:52;38.53;;;34.83;;
25111;SDS011;13092;51.996;4.458;2022-10-29T08:13:24;38.83;;;35.13;;
25111;SDS011;13092;51.996;4.458;2022-10-29T08:15:54;39.75;;;36.05;;
25111;SDS011;13092;51.996;4.458;2022-10-29T08:18:22;39.53;;;35.78;;
25111;SDS011;13092;51.996;4.458;2022-10-29T08:20:51;39.30;;;35.53;;
25111;SDS011;13092;51.996;4.458;2022-10-29T08:23:19;39.72;;;35.67;;
25111;SDS011;13092;51.996;4.458;2022-10-29T08:25:47;39.17;;;35.25;;
25111;SDS011;13092;51.996;4.458;2022-10-29T08:28:14;40.00;;;36.13;;
25111;SDS011;13092;51.996;4.458;2022-10-29T08:30:47;39.22;;;35.35;;
25111;SDS011;13092;51.996;4.458;2022-10-29T08:33:17;37.83;;;34.13;;
25111;SDS011;13092;51.996;4.458;2022-10-29T08:35:48;40.25;;;36.33;;
25111;SDS011;13092;51.996;4.458;2022-10-29T08:38:17;39.78;;;35.88;;
25111;SDS011;13092;51.996;4.458;2022-10-29T08:40:52;39.10;;;35.53;;
25111;SDS011;13092;51.996;4.458;2022-10-29T08:43:37;40.00;;;36.03;;
25111;SDS011;13092;51.996;4.458;2022-10-29T08:46:23;40.90;;;36.88;;
25111;SDS011;13092;51.996;4.458;2022-10-29T08:49:03;39.25;;;35.70;;
25111;SDS011;13092;51.996;4.458;2022-10-29T08:51:38;37.88;;;34.38;;
25111;SDS011;13092;51.996;4.458;2022-10-29T08:54:10;39.15;;;34.95;;
25111;SDS011;13092;51.996;4.458;2022-10-29T08:56:56;39.15;;;35.42;;
25111;SDS011;13092;51.996;4.458;2022-10-29T08:59:28;38.55;;;34.80;;
25111;SDS011;13092;51.996;4.458;2022-10-29T09:02:02;39.65;;;35.97;;
25111;SDS011;13092;51.996;4.458;2022-10-29T09:04:32;39.53;;;35.65;;
25111;SDS011;13092;51.996;4.458;2022-10-29T09:07:06;39.22;;;35.60;;
25111;SDS011;13092;51.996;4.458;2022-10-29T09:10:03;40.13;;;36.17;;
25111;SDS011;13092;51.996;4.458;2022-10-29T09:12:41;39.85;;;36.15;;
25111;SDS011;13092;51.996;4.458;2022-10-29T09:15:25;40.50;;;36.88;;
25111;SDS011;13092;51.996;4.458;2022-10-29T09:18:19;39.38;;;35.63;;
25111;SDS011;13092;51.996;4.458;2022-10-29T09:20:57;39.88;;;35.97;;
25111;SDS011;13092;51.996;4.458;2022-10-29T09:23:37;40.17;;;36.42;;
25111;SDS011;13092;51.996;4.458;2022-10-29T09:26:16;39.75;;;36.25;;
25111;SDS011;13092;51.996;4.458;2022-10-29T09:28:59;40.38;;;36.75;;
25111;SDS011;13092;51.996;4.458;2022-10-29T09:31:39;37.85;;;34.55;;
25111;SDS011;13092;51.996;4.458;2022-10-29T09:34:10;40.42;;;36.83;;
25111;SDS011;13092;51.996;4.458;2022-10-29T09:36:44;39.13;;;35.53;;
25111;SDS011;13092;51.996;4.458;2022-10-29T09:39:18;40.33;;;36.53;;
25111;SDS011;13092;51.996;4.458;2022-10-29T09:41:59;39.00;;;35.33;;
25111;SDS011;13092;51.996;4.458;2022-10-29T09:44:30;39.55;;;35.70;;
25111;SDS011;13092;51.996;4.458;2022-10-29T09:47:06;40.05;;;36.28;;
25111;SDS011;13092;51.996;4.458;2022-10-29T09:49:46;38.67;;;35.10;;
25111;SDS011;13092;51.996;4.458;2022-10-29T09:52:35;40.45;;;36.67;;
25111;SDS011;13092;51.996;4.458;2022-10-29T09:55:06;37.33;;;33.85;;
25111;SDS011;13092;51.996;4.458;2022-10-29T09:57:49;38.13;;;34.38;;
25111;SDS011;13092;51.996;4.458;2022-10-29T10:00:19;39.28;;;35.47;;
25111;SDS011;13092;51.996;4.458;2022-10-29T10:02:49;38.35;;;34.88;;
25111;SDS011;13092;51.996;4.458;2022-10-29T10:05:24;37.95;;;34.67;;
25111;SDS011;13092;51.996;4.458;2022-10-29T10:08:08;37.00;;;33.80;;
25111;SDS011;13092;51.996;4.458;2022-10-29T10:10:48;35.15;;;31.98;;
25111;SDS011;13092;51.996;4.458;2022-10-29T10:13:18;36.20;;;32.95;;
25111;SDS011;13092;51.996;4.458;2022-10-29T10:15:53;35.72;;;32.53;;
25111;SDS011;13092;51.996;4.458;2022-10-29T10:18:22;36.17;;;32.78;;
25111;SDS011;13092;51.996;4.458;2022-10-29T10:21:02;38.17;;;33.20;;
25111;SDS011;13092;51.996;4.458;2022-10-29T10:23:40;36.05;;;32.83;;
25111;SDS011;13092;51.996;4.458;2022-10-29T10:26:26;36.58;;;33.55;;
25111;SDS011;13092;51.996;4.458;2022-10-29T10:29:03;36.90;;;33.88;;
25111;SDS011;13092;51.996;4.458;2022-10-29T10:31:37;33.72;;;31.08;;
25111;SDS011;13092;51.996;4.458;2022-10-29T10:34:08;35.78;;;32.92;;
25111;SDS011;13092;51.996;4.458;2022-10-29T10:36:43;34.03;;;31.20;;
25111;SDS011;13092;51.996;4.458;2022-10-29T10:39:19;33.95;;;31.00;;
25111;SDS011;13092;51.996;4.458;2022-10-29T10:41:51;33.70;;;30.88;;
25111;SDS011;13092;51.996;4.458;2022-10-29T10:44:19;34.13;;;31.17;;
25111;SDS011;13092;51.996;4.458;2022-10-29T10:46:50;31.60;;;28.83;;
25111;SDS011;13092;51.996;4.458;2022-10-29T10:49:22;32.17;;;29.20;;
25111;SDS011;13092;51.996;4.458;2022-10-29T10:51:58;30.80;;;28.38;;
25111;SDS011;13092;51.996;4.458;2022-10-29T10:54:31;27.85;;;25.65;;
25111;SDS011;13092;51.996;4.458;2022-10-29T10:57:03;27.90;;;25.42;;
25111;SDS011;13092;51.996;4.458;2022-10-29T10:59:46;31.13;;;28.48;;
25111;SDS011;13092;51.996;4.458;2022-10-29T11:02:24;30.38;;;27.75;;
25111;SDS011;13092;51.996;4.458;2022-10-29T11:04:59;29.25;;;26.65;;
25111;SDS011;13092;51.996;4.458;2022-10-29T11:07:35;29.45;;;26.88;;
25111;SDS011;13092;51.996;4.458;2022-10-29T11:10:09;31.63;;;28.85;;
25111;SDS011;13092;51.996;4.458;2022-10-29T11:12:41;30.42;;;27.85;;
25111;SDS011;13092;51.996;4.458;2022-10-29T11:15:14;29.98;;;27.17;;
25111;SDS011;13092;51.996;4.458;2022-10-29T11:17:52;28.58;;;26.40;;
25111;SDS011;13092;51.996;4.458;2022-10-29T11:20:24;30.02;;;27.50;;
25111;SDS011;13092;51.996;4.458;2022-10-29T11:22:59;30.20;;;27.58;;
25111;SDS011;13092;51.996;4.458;2022-10-29T11:25:42;29.48;;;27.02;;
25111;SDS011;13092;51.996;4.458;2022-10-29T11:28:18;29.30;;;26.90;;
25111;SDS011;13092;51.996;4.458;2022-10-29T11:30:50;30.55;;;28.05;;
25111;SDS011;13092;51.996;4.458;2022-10-29T11:33:23;30.02;;;27.45;;
25111;SDS011;13092;51.996;4.458;2022-10-29T11:36:00;30.42;;;27.40;;
25111;SDS011;13092;51.996;4.458;2022-10-29T11:38:36;31.73;;;28.90;;
25111;SDS011;13092;51.996;4.458;2022-10-29T11:41:12;31.35;;;28.67;;
25111;SDS011;13092;51.996;4.458;2022-10-29T11:43:48;31.25;;;28.55;;
25111;SDS011;13092;51.996;4.458;2022-10-29T11:46:19;29.85;;;26.95;;
25111;SDS011;13092;51.996;4.458;2022-10-29T11:48:56;30.30;;;27.58;;
25111;SDS011;13092;51.996;4.458;2022-10-29T11:51:30;31.30;;;28.00;;
25111;SDS011;13092;51.996;4.458;2022-10-29T11:54:07;27.00;;;24.50;;
25111;SDS011;13092;51.996;4.458;2022-10-29T11:56:49;26.23;;;24.13;;
25111;SDS011;13092;51.996;4.458;2022-10-29T11:59:22;23.52;;;21.13;;
25111;SDS011;13092;51.996;4.458;2022-10-29T12:02:04;24.92;;;22.83;;
25111;SDS011;13092;51.996;4.458;2022-10-29T12:04:44;27.10;;;22.15;;
25111;SDS011;13092;51.996;4.458;2022-10-29T12:07:21;25.02;;;22.67;;
25111;SDS011;13092;51.996;4.458;2022-10-29T12:13:18;25.75;;;23.50;;
25111;SDS011;13092;51.996;4.458;2022-10-29T12:16:03;24.80;;;22.83;;
25111;SDS011;13092;51.996;4.458;2022-10-29T12:18:40;24.08;;;21.77;;
25111;SDS011;13092;51.996;4.458;2022-10-29T12:21:16;24.92;;;22.42;;
25111;SDS011;13092;51.996;4.458;2022-10-29T12:23:53;24.65;;;22.45;;
25111;SDS011;13092;51.996;4.458;2022-10-29T12:26:34;25.58;;;23.40;;
25111;SDS011;13092;51.996;4.458;2022-10-29T12:29:10;25.10;;;22.65;;
25111;SDS011;13092;51.996;4.458;2022-10-29T12:31:47;25.77;;;23.60;;
25111;SDS011;13092;51.996;4.458;2022-10-29T12:34:24;24.65;;;22.35;;
25111;SDS011;13092;51.996;4.458;2022-10-29T12:37:00;25.70;;;23.42;;
25111;SDS011;13092;51.996;4.458;2022-10-29T12:39:36;24.85;;;22.58;;
25111;SDS011;13092;51.996;4.458;2022-10-29T12:42:11;23.92;;;21.92;;
25111;SDS011;13092;51.996;4.458;2022-10-29T12:44:52;23.95;;;21.80;;
25111;SDS011;13092;51.996;4.458;2022-10-29T12:47:30;24.65;;;22.38;;
25111;SDS011;13092;51.996;4.458;2022-10-29T12:50:04;26.42;;;24.23;;
25111;SDS011;13092;51.996;4.458;2022-10-29T12:52:45;24.45;;;22.27;;
25111;SDS011;13092;51.996;4.458;2022-10-29T12:55:19;24.63;;;22.25;;
25111;SDS011;13092;51.996;4.458;2022-10-29T12:57:50;22.73;;;20.52;;
25111;SDS011;13092;51.996;4.458;2022-10-29T13:09:13;25.75;;;20.48;;
25111;SDS011;13092;51.996;4.458;2022-10-29T13:11:45;25.25;;;22.85;;
25111;SDS011;13092;51.996;4.458;2022-10-29T13:14:17;25.67;;;23.20;;
25111;SDS011;13092;51.996;4.458;2022-10-29T13:16:50;27.35;;;24.85;;
25111;SDS011;13092;51.996;4.458;2022-10-29T13:19:26;26.48;;;24.27;;
25111;SDS011;13092;51.996;4.458;2022-10-29T13:22:05;26.65;;;24.20;;
25111;SDS011;13092;51.996;4.458;2022-10-29T13:34:20;28.10;;;25.50;;
25111;SDS011;13092;51.996;4.458;2022-10-29T13:40:38;28.80;;;26.23;;
25111;SDS011;13092;51.996;4.458;2022-10-29T13:43:22;27.77;;;25.23;;
25111;SDS011;13092;51.996;4.458;2022-10-29T13:46:00;30.30;;;27.88;;
25111;SDS011;13092;51.996;4.458;2022-10-29T13:48:50;31.38;;;28.77;;
25111;SDS011;13092;51.996;4.458;2022-10-29T13:51:23;31.08;;;28.95;;
25111;SDS011;13092;51.996;4.458;2022-10-29T13:53:57;30.17;;;27.92;;
25111;SDS011;13092;51.996;4.458;2022-10-29T13:56:32;33.08;;;30.42;;
25111;SDS011;13092;51.996;4.458;2022-10-29T13:59:07;31.25;;;28.58;;
25111;SDS011;13092;51.996;4.458;2022-10-29T14:01:49;30.67;;;28.02;;
25111;SDS011;13092;51.996;4.458;2022-10-29T14:04:25;31.27;;;28.92;;
25111;SDS011;13092;51.996;4.458;2022-10-29T14:07:04;31.13;;;28.63;;
25111;SDS011;13092;51.996;4.458;2022-10-29T14:09:40;32.70;;;30.20;;
25111;SDS011;13092;51.996;4.458;2022-10-29T14:12:11;31.80;;;29.38;;
25111;SDS011;13092;51.996;4.458;2022-10-29T14:14:47;30.15;;;27.85;;
25111;SDS011;13092;51.996;4.458;2022-10-29T14:17:22;34.33;;;31.35;;
25111;SDS011;13092;51.996;4.458;2022-10-29T14:19:50;33.92;;;31.08;;
25111;SDS011;13092;51.996;4.458;2022-10-29T14:22:27;34.08;;;31.48;;
25111;SDS011;13092;51.996;4.458;2022-10-29T14:24:59;35.63;;;32.85;;
25111;SDS011;13092;51.996;4.458;2022-10-29T14:27:28;36.90;;;34.03;;
25111;SDS011;13092;51.996;4.458;2022-10-29T14:30:12;37.08;;;34.50;;
25111;SDS011;13092;51.996;4.458;2022-10-29T14:32:47;37.33;;;34.33;;
25111;SDS011;13092;51.996;4.458;2022-10-29T14:35:18;37.17;;;34.38;;
25111;SDS011;13092;51.996;4.458;2022-10-29T14:37:47;38.95;;;35.65;;
25111;SDS011;13092;51.996;4.458;2022-10-29T14:40:17;37.17;;;34.28;;
25111;SDS011;13092;51.996;4.458;2022-10-29T14:42:48;38.58;;;35.33;;
25111;SDS011;13092;51.996;4.458;2022-10-29T14:45:22;40.13;;;36.78;;
25111;SDS011;13092;51.996;4.458;2022-10-29T14:47:53;40.58;;;37.55;;
25111;SDS011;13092;51.996;4.458;2022-10-29T14:50:23;39.47;;;36.58;;
25111;SDS011;13092;51.996;4.458;2022-10-29T14:52:55;43.30;;;39.85;;
25111;SDS011;13092;51.996;4.458;2022-10-29T14:55:26;41.97;;;38.67;;
25111;SDS011;13092;51.996;4.458;2022-10-29T14:58:01;43.33;;;40.05;;
25111;SDS011;13092;51.996;4.458;2022-10-29T15:00:32;42.03;;;38.72;;
25111;SDS011;13092;51.996;4.458;2022-10-29T15:03:02;40.83;;;37.92;;
25111;SDS011;13092;51.996;4.458;2022-10-29T15:05:33;41.58;;;38.13;;
25111;SDS011;13092;51.996;4.458;2022-10-29T15:08:05;40.28;;;37.35;;
25111;SDS011;13092;51.996;4.458;2022-10-29T15:10:44;38.92;;;36.08;;
25111;SDS011;13092;51.996;4.458;2022-10-29T15:13:18;40.25;;;37.35;;
25111;SDS011;13092;51.996;4.458;2022-10-29T15:15:50;39.85;;;36.40;;
25111;SDS011;13092;51.996;4.458;2022-10-29T15:18:20;39.65;;;36.45;;
25111;SDS011;13092;51.996;4.458;2022-10-29T15:20:49;39.67;;;36.78;;